Time;durP1;ratioP1;P1;durP2;ratioP2;P2;SDS_P1;SDS_P2;PMS_P1;PMS_P2;Temp;Humidity;BMP_temperature;BMP_pressure;BME280_temperature;BME280_humidity;BME280_pressure;Samples;Min_cycle;Max_cycle;Signal;HPM_P1;HPM_P2
2023/10/23 00:01:29;;;;;;;1.70;1.42;;;6.70;99.90;;;;;;479644;248;29373;-70
2023/10/23 00:03:30;;;;;;;4.87;1.60;;;6.60;99.90;;;;;;479631;248;27936;-71
2023/10/23 00:05:31;;;;;;;3.07;1.40;;;6.60;99.90;;;;;;479632;248;28871;-71
2023/10/23 00:07:32;;;;;;;2.03;1.47;;;6.60;99.90;;;;;;479602;248;28832;-70
2023/10/23 00:09:34;;;;;;;2.08;1.60;;;6.60;99.90;;;;;;479631;248;28941;-70
2023/10/23 00:11:35;;;;;;;2.93;1.63;;;6.60;99.90;;;;;;479600;248;27534;-72
2023/10/23 00:13:36;;;;;;;4.30;2.03;;;6.50;99.90;;;;;;479624;248;28827;-70
2023/10/23 00:15:37;;;;;;;4.43;2.60;;;6.50;99.90;;;;;;479630;248;28888;-70
2023/10/23 00:17:39;;;;;;;4.18;2.15;;;6.40;99.90;;;;;;479619;248;28855;-71
2023/10/23 00:19:40;;;;;;;2.40;2.10;;;6.40;99.90;;;;;;479638;248;27571;-70
2023/10/23 00:21:42;;;;;;;2.67;1.62;;;6.30;99.90;;;;;;479607;248;28027;-71
2023/10/23 00:23:42;;;;;;;4.18;2.70;;;6.30;99.90;;;;;;479566;248;27933;-70
2023/10/23 00:25:44;;;;;;;2.40;1.70;;;6.30;99.90;;;;;;479587;248;27609;-70
2023/10/23 00:27:45;;;;;;;4.20;1.80;;;6.40;99.90;;;;;;479573;248;27549;-71
2023/10/23 00:29:46;;;;;;;3.40;1.92;;;6.30;99.90;;;;;;479566;242;28336;-71
2023/10/23 00:31:47;;;;;;;4.72;1.65;;;6.40;99.90;;;;;;479575;248;27527;-71
2023/10/23 00:33:49;;;;;;;5.03;1.50;;;6.40;99.90;;;;;;479359;248;27531;-70
2023/10/23 00:35:50;;;;;;;5.07;1.80;;;6.40;99.90;;;;;;479528;248;27947;-70
2023/10/23 00:37:51;;;;;;;3.15;1.70;;;6.50;99.90;;;;;;479566;242;28027;-71
2023/10/23 00:39:52;;;;;;;5.35;1.67;;;6.40;99.90;;;;;;479608;248;27492;-71
2023/10/23 00:41:54;;;;;;;4.47;1.70;;;6.40;99.90;;;;;;479563;248;27611;-71
2023/10/23 00:43:55;;;;;;;4.78;1.50;;;6.40;99.90;;;;;;479599;248;28932;-71
2023/10/23 00:45:56;;;;;;;5.80;1.60;;;6.40;99.90;;;;;;479610;248;27468;-70
2023/10/23 00:47:57;;;;;;;3.58;1.52;;;6.30;99.90;;;;;;479630;248;27532;-72
2023/10/23 00:50:00;;;;;;;3.22;1.80;;;6.30;99.90;;;;;;479628;248;28026;-70
2023/10/23 00:52:00;;;;;;;2.87;1.77;;;6.30;99.90;;;;;;479586;248;27603;-71
2023/10/23 00:54:01;;;;;;;2.30;1.55;;;6.30;99.90;;;;;;479621;248;27627;-72
2023/10/23 00:56:04;;;;;;;1.77;1.57;;;6.20;99.90;;;;;;479605;248;27967;-70
2023/10/23 00:58:04;;;;;;;4.82;1.70;;;6.20;99.90;;;;;;479563;248;28150;-71
2023/10/23 01:00:05;;;;;;;2.28;1.60;;;6.20;99.90;;;;;;479623;248;27501;-70
2023/10/23 01:02:07;;;;;;;3.27;1.47;;;6.20;99.90;;;;;;479646;248;27547;-70
2023/10/23 01:04:07;;;;;;;2.67;1.70;;;6.10;99.90;;;;;;479602;248;28910;-71
2023/10/23 01:06:09;;;;;;;4.85;1.50;;;6.10;99.90;;;;;;479606;248;28018;-70
2023/10/23 01:08:10;;;;;;;1.87;1.52;;;6.00;99.90;;;;;;479589;248;27552;-70
2023/10/23 01:10:11;;;;;;;6.45;2.10;;;6.00;99.90;;;;;;479583;248;27512;-70
2023/10/23 01:12:13;;;;;;;3.20;1.70;;;6.00;99.90;;;;;;479604;248;27554;-70
2023/10/23 01:14:14;;;;;;;4.97;1.67;;;6.00;99.90;;;;;;479629;248;27627;-73
2023/10/23 01:16:15;;;;;;;1.92;1.25;;;6.10;99.90;;;;;;479594;248;27484;-70
2023/10/23 01:18:16;;;;;;;3.10;1.65;;;6.10;99.90;;;;;;479573;248;28011;-71
2023/10/23 01:20:18;;;;;;;2.37;1.85;;;6.10;99.90;;;;;;479655;242;28027;-72
2023/10/23 01:22:19;;;;;;;5.07;1.60;;;6.10;99.90;;;;;;479651;248;27608;-70
2023/10/23 01:24:20;;;;;;;2.47;1.62;;;6.10;99.90;;;;;;479563;248;27524;-70
2023/10/23 01:26:22;;;;;;;7.87;2.40;;;6.10;99.90;;;;;;479616;248;27508;-70
2023/10/23 01:28:23;;;;;;;2.55;1.85;;;6.00;99.90;;;;;;479563;248;27620;-70
2023/10/23 01:30:24;;;;;;;2.45;1.50;;;6.00;99.90;;;;;;479610;248;27526;-71
2023/10/23 01:32:25;;;;;;;3.20;1.50;;;6.00;99.90;;;;;;479563;248;27928;-70
2023/10/23 01:34:26;;;;;;;2.97;1.55;;;5.90;99.90;;;;;;479609;248;27999;-70
2023/10/23 01:36:28;;;;;;;4.35;1.70;;;5.90;99.90;;;;;;479601;248;27608;-70
2023/10/23 01:38:29;;;;;;;2.15;1.62;;;5.90;99.90;;;;;;479621;248;27632;-70
2023/10/23 01:40:30;;;;;;;3.72;1.65;;;5.90;99.90;;;;;;479636;248;27909;-71
2023/10/23 01:42:31;;;;;;;2.47;1.42;;;5.90;99.90;;;;;;479658;243;27539;-70
2023/10/23 01:44:33;;;;;;;3.72;1.48;;;6.00;99.90;;;;;;479586;248;27529;-70
2023/10/23 01:46:36;;;;;;;3.90;1.92;;;5.90;99.90;;;;;;479614;248;28128;-72
2023/10/23 01:48:38;;;;;;;2.40;1.30;;;5.80;99.90;;;;;;479596;248;27534;-70
2023/10/23 01:50:38;;;;;;;2.25;1.80;;;5.80;99.90;;;;;;479581;248;28959;-71
2023/10/23 01:52:41;;;;;;;1.65;1.55;;;5.70;99.90;;;;;;479609;248;28109;-71
2023/10/23 01:54:41;;;;;;;4.72;1.62;;;5.80;99.90;;;;;;479521;248;28118;-70
2023/10/23 01:56:42;;;;;;;1.90;1.50;;;5.80;99.90;;;;;;479558;248;27521;-72
2023/10/23 01:58:43;;;;;;;6.35;1.77;;;5.70;99.90;;;;;;479608;248;27491;-70
2023/10/23 02:00:44;;;;;;;2.50;1.83;;;5.70;99.90;;;;;;479579;248;27685;-71
2023/10/23 02:02:46;;;;;;;2.75;1.40;;;5.70;99.90;;;;;;479579;248;27486;-70
2023/10/23 02:04:47;;;;;;;3.25;1.50;;;5.70;99.90;;;;;;479586;242;27616;-70
2023/10/23 02:06:48;;;;;;;2.60;1.12;;;5.70;99.90;;;;;;479586;248;28067;-72
2023/10/23 02:08:49;;;;;;;4.07;1.75;;;5.70;99.90;;;;;;479594;248;27943;-70
2023/10/23 02:10:51;;;;;;;3.17;1.65;;;5.70;99.90;;;;;;479568;248;27528;-75
2023/10/23 02:12:52;;;;;;;3.37;1.70;;;5.70;99.90;;;;;;479521;248;27528;-70
2023/10/23 02:14:53;;;;;;;2.17;1.60;;;5.70;99.90;;;;;;479598;248;27493;-70
2023/10/23 02:16:54;;;;;;;2.62;1.60;;;5.70;99.90;;;;;;479623;248;27533;-71
2023/10/23 02:18:56;;;;;;;3.20;1.70;;;5.60;99.90;;;;;;479643;248;27483;-71
2023/10/23 02:20:57;;;;;;;2.03;1.50;;;5.60;99.90;;;;;;479525;248;28116;-70
2023/10/23 02:22:58;;;;;;;2.30;1.30;;;5.60;99.90;;;;;;479637;248;28394;-70
2023/10/23 02:25:00;;;;;;;2.30;1.52;;;5.50;99.90;;;;;;479459;248;27956;-71
2023/10/23 02:27:01;;;;;;;1.73;1.50;;;5.60;99.90;;;;;;479503;248;27509;-71
2023/10/23 02:29:02;;;;;;;2.10;1.40;;;5.60;99.90;;;;;;479630;248;27563;-70
2023/10/23 02:31:03;;;;;;;2.00;1.77;;;5.60;99.90;;;;;;479651;248;27511;-71
2023/10/23 02:33:06;;;;;;;5.18;1.60;;;5.60;99.90;;;;;;479643;248;27994;-71
2023/10/23 02:35:08;;;;;;;1.73;1.50;;;5.60;99.90;;;;;;479632;248;27518;-70
2023/10/23 02:37:10;;;;;;;4.32;1.75;;;5.60;99.90;;;;;;479602;248;27527;-71
2023/10/23 02:39:12;;;;;;;5.10;1.90;;;5.60;99.90;;;;;;479629;248;27531;-71
2023/10/23 02:41:13;;;;;;;2.90;1.60;;;5.50;99.90;;;;;;479652;248;27969;-71
2023/10/23 02:43:14;;;;;;;2.75;1.55;;;5.50;99.90;;;;;;479594;248;27928;-70
2023/10/23 02:45:15;;;;;;;8.52;2.03;;;5.50;99.90;;;;;;479596;248;27999;-71
2023/10/23 02:47:17;;;;;;;1.85;1.50;;;5.50;99.90;;;;;;479606;248;27548;-70
2023/10/23 02:49:18;;;;;;;2.97;1.60;;;5.50;99.90;;;;;;479606;248;27488;-70
2023/10/23 02:51:19;;;;;;;3.95;1.60;;;5.50;99.90;;;;;;479594;248;27539;-71
2023/10/23 02:53:21;;;;;;;1.40;1.30;;;5.50;99.90;;;;;;479600;242;27584;-70
2023/10/23 02:55:22;;;;;;;3.60;2.00;;;5.50;99.90;;;;;;479594;248;27589;-70
2023/10/23 02:57:25;;;;;;;6.10;2.28;;;5.40;99.90;;;;;;479601;248;28025;-72
2023/10/23 02:59:26;;;;;;;3.22;1.80;;;5.40;99.90;;;;;;479618;248;27534;-71
2023/10/23 03:01:27;;;;;;;3.87;1.75;;;5.40;99.90;;;;;;479643;248;28008;-72
2023/10/23 03:03:28;;;;;;;1.83;1.55;;;5.40;99.90;;;;;;479597;248;28047;-70
2023/10/23 03:05:30;;;;;;;7.57;1.92;;;5.30;99.90;;;;;;479604;248;28068;-71
2023/10/23 03:07:31;;;;;;;1.70;1.37;;;5.30;99.90;;;;;;479597;248;27595;-70
2023/10/23 03:09:32;;;;;;;2.87;1.60;;;5.30;99.90;;;;;;479623;248;27467;-70
2023/10/23 03:11:33;;;;;;;2.05;1.27;;;5.20;99.90;;;;;;479609;248;27637;-72
2023/10/23 03:13:35;;;;;;;2.15;1.55;;;5.20;99.90;;;;;;479601;248;27515;-70
2023/10/23 03:15:36;;;;;;;4.97;1.70;;;5.20;99.90;;;;;;479594;248;27524;-70
2023/10/23 03:17:37;;;;;;;2.75;1.75;;;5.20;99.90;;;;;;479602;248;28024;-71
2023/10/23 03:19:38;;;;;;;2.83;1.65;;;5.20;99.90;;;;;;479629;248;27947;-71
2023/10/23 03:21:40;;;;;;;2.15;1.40;;;5.20;99.90;;;;;;479627;248;27672;-72
2023/10/23 03:23:41;;;;;;;2.60;1.77;;;5.20;99.90;;;;;;479676;248;27526;-71
2023/10/23 03:25:42;;;;;;;1.80;1.30;;;5.20;99.90;;;;;;479659;248;27536;-70
2023/10/23 03:27:43;;;;;;;1.50;1.25;;;5.20;99.90;;;;;;479610;248;27709;-71
2023/10/23 03:29:45;;;;;;;2.85;1.50;;;5.20;99.90;;;;;;479629;248;27567;-70
2023/10/23 03:31:46;;;;;;;1.80;1.60;;;5.20;99.90;;;;;;479645;248;27621;-70
2023/10/23 03:33:47;;;;;;;1.98;1.77;;;5.20;99.90;;;;;;479604;248;27505;-70
2023/10/23 03:35:49;;;;;;;1.55;1.45;;;5.20;99.90;;;;;;479666;248;27487;-70
2023/10/23 03:37:50;;;;;;;3.20;1.48;;;5.20;99.90;;;;;;479613;248;27541;-71
2023/10/23 03:39:51;;;;;;;3.90;1.62;;;5.10;99.90;;;;;;479614;248;27496;-70
2023/10/23 03:41:52;;;;;;;3.75;1.52;;;5.10;99.90;;;;;;479610;248;27556;-70
2023/10/23 03:43:54;;;;;;;4.20;1.55;;;5.10;99.90;;;;;;479623;248;27522;-70
2023/10/23 03:45:55;;;;;;;1.90;1.30;;;5.10;99.90;;;;;;479645;242;27949;-71
2023/10/23 03:47:56;;;;;;;2.03;1.83;;;5.10;99.90;;;;;;479642;248;28094;-71
2023/10/23 03:49:57;;;;;;;5.03;2.00;;;5.10;99.90;;;;;;479633;248;27488;-70
2023/10/23 03:51:59;;;;;;;2.20;1.67;;;5.10;99.90;;;;;;479664;248;27504;-70
2023/10/23 03:54:00;;;;;;;2.55;1.80;;;5.10;99.90;;;;;;479625;248;27538;-72
2023/10/23 03:56:01;;;;;;;5.00;1.65;;;5.10;99.90;;;;;;479608;248;27496;-71
2023/10/23 03:58:02;;;;;;;4.20;2.25;;;5.00;99.90;;;;;;479604;248;27605;-72
2023/10/23 04:00:05;;;;;;;2.87;1.67;;;5.00;99.90;;;;;;479657;248;27518;-70
2023/10/23 04:02:05;;;;;;;5.32;1.70;;;5.00;99.90;;;;;;479619;248;27950;-70
2023/10/23 04:04:08;;;;;;;4.90;1.50;;;5.00;99.90;;;;;;479640;248;28009;-72
2023/10/23 04:06:07;;;;;;;2.25;1.20;;;5.00;99.90;;;;;;479552;248;27553;-70
2023/10/23 04:08:09;;;;;;;2.90;1.40;;;5.10;99.90;;;;;;479594;248;27658;-70
2023/10/23 04:10:13;;;;;;;3.80;1.60;;;5.00;99.90;;;;;;479640;248;27920;-74
2023/10/23 04:12:11;;;;;;;4.95;1.90;;;5.00;99.90;;;;;;479601;248;27524;-70
2023/10/23 04:14:12;;;;;;;1.60;1.50;;;5.00;99.90;;;;;;479585;248;27642;-70
2023/10/23 04:16:15;;;;;;;2.45;1.58;;;5.00;99.90;;;;;;479651;248;27949;-70
2023/10/23 04:18:15;;;;;;;2.72;2.15;;;5.00;99.90;;;;;;479599;248;28087;-70
2023/10/23 04:20:16;;;;;;;4.20;2.28;;;5.00;99.90;;;;;;479589;248;28077;-71
2023/10/23 04:22:17;;;;;;;7.10;2.10;;;5.00;99.90;;;;;;479582;248;27511;-70
2023/10/23 04:24:19;;;;;;;5.90;3.67;;;5.00;99.90;;;;;;479352;248;27544;-71
2023/10/23 04:26:20;;;;;;;3.58;2.40;;;5.00;99.90;;;;;;479608;248;27543;-72
2023/10/23 04:28:21;;;;;;;2.60;2.12;;;4.90;99.90;;;;;;479603;248;27511;-71
2023/10/23 04:30:22;;;;;;;4.05;2.70;;;4.90;99.90;;;;;;479607;248;27532;-71
2023/10/23 04:32:24;;;;;;;6.53;3.22;;;4.90;99.90;;;;;;479584;248;27494;-70
2023/10/23 04:34:25;;;;;;;5.78;2.50;;;4.90;99.90;;;;;;479578;248;28000;-70
2023/10/23 04:36:26;;;;;;;7.47;2.45;;;4.90;99.90;;;;;;479598;248;28018;-72
2023/10/23 04:38:28;;;;;;;6.80;2.37;;;5.00;99.90;;;;;;479582;248;27480;-70
2023/10/23 04:40:29;;;;;;;2.35;1.95;;;5.00;99.90;;;;;;479598;248;27534;-70
2023/10/23 04:42:30;;;;;;;3.78;1.70;;;4.90;99.90;;;;;;479591;248;27611;-71
2023/10/23 04:44:31;;;;;;;2.15;1.95;;;4.90;99.90;;;;;;479582;248;27669;-69
2023/10/23 04:46:33;;;;;;;4.62;2.55;;;4.90;99.90;;;;;;479597;248;27536;-71
2023/10/23 04:48:34;;;;;;;2.67;1.92;;;4.90;99.90;;;;;;479626;243;27490;-69
2023/10/23 04:50:35;;;;;;;6.30;2.70;;;4.90;99.90;;;;;;479592;248;27972;-72
2023/10/23 04:52:36;;;;;;;3.72;1.98;;;4.90;99.90;;;;;;479581;248;29028;-70
2023/10/23 04:54:38;;;;;;;2.55;2.22;;;4.90;99.90;;;;;;479600;248;27496;-71
2023/10/23 04:56:39;;;;;;;5.35;2.75;;;4.80;99.90;;;;;;479591;242;27504;-72
2023/10/23 04:58:40;;;;;;;5.18;2.08;;;4.80;99.90;;;;;;479612;248;27610;-69
2023/10/23 05:00:41;;;;;;;3.55;2.00;;;4.80;99.90;;;;;;479573;248;27546;-70
2023/10/23 05:02:43;;;;;;;5.65;2.03;;;4.80;99.90;;;;;;479586;248;27992;-72
2023/10/23 05:04:44;;;;;;;4.45;2.03;;;4.80;99.90;;;;;;479607;248;27587;-70
2023/10/23 05:06:45;;;;;;;3.50;1.70;;;4.80;99.90;;;;;;479587;248;28068;-72
2023/10/23 05:08:46;;;;;;;1.75;1.65;;;4.90;99.90;;;;;;479610;248;27999;-70
2023/10/23 05:10:48;;;;;;;4.05;1.80;;;4.80;99.90;;;;;;479567;248;28138;-71
2023/10/23 05:12:49;;;;;;;2.90;1.90;;;4.80;99.90;;;;;;479620;248;27627;-72
2023/10/23 05:14:51;;;;;;;2.83;1.75;;;4.80;99.90;;;;;;479635;248;27532;-70
2023/10/23 05:16:51;;;;;;;3.92;1.85;;;4.80;99.90;;;;;;479607;248;27566;-70
2023/10/23 05:18:53;;;;;;;2.37;1.80;;;4.80;99.90;;;;;;479608;248;27512;-70
2023/10/23 05:20:54;;;;;;;5.65;2.28;;;4.90;99.90;;;;;;479652;248;27494;-70
2023/10/23 05:22:55;;;;;;;2.75;1.92;;;4.80;99.90;;;;;;479585;248;27525;-70
2023/10/23 05:24:56;;;;;;;3.22;2.00;;;4.70;99.90;;;;;;479554;248;28034;-70
2023/10/23 05:26:59;;;;;;;4.45;1.80;;;4.80;99.90;;;;;;479590;248;28083;-70
2023/10/23 05:28:59;;;;;;;2.67;1.83;;;4.80;99.90;;;;;;479578;248;28060;-72
2023/10/23 05:31:00;;;;;;;2.03;1.83;;;4.80;99.90;;;;;;479618;248;27541;-70
2023/10/23 05:33:03;;;;;;;3.28;2.00;;;4.80;99.90;;;;;;479616;248;27531;-70
2023/10/23 05:35:03;;;;;;;5.10;1.70;;;4.80;99.90;;;;;;479495;247;27579;-72
2023/10/23 05:37:04;;;;;;;4.78;2.12;;;4.80;99.90;;;;;;479416;248;27665;-71
2023/10/23 05:39:06;;;;;;;5.50;1.83;;;4.80;99.90;;;;;;479577;248;27955;-72
2023/10/23 05:41:08;;;;;;;1.73;1.45;;;4.80;99.90;;;;;;479583;242;27565;-70
2023/10/23 05:43:08;;;;;;;2.20;2.00;;;4.70;99.90;;;;;;479582;248;28007;-70
2023/10/23 05:45:09;;;;;;;2.92;2.30;;;4.70;99.90;;;;;;479592;248;29084;-70
2023/10/23 05:47:10;;;;;;;5.45;2.55;;;4.60;99.90;;;;;;479593;248;27527;-70
2023/10/23 05:49:11;;;;;;;3.75;2.42;;;4.60;99.90;;;;;;479602;248;27612;-72
2023/10/23 05:51:13;;;;;;;6.57;2.35;;;4.60;99.90;;;;;;479626;248;27482;-70
2023/10/23 05:53:14;;;;;;;2.33;2.12;;;4.60;99.90;;;;;;479567;248;27544;-70
2023/10/23 05:55:15;;;;;;;5.15;2.70;;;4.70;99.90;;;;;;479606;248;27538;-71
2023/10/23 05:57:16;;;;;;;4.78;2.30;;;4.70;99.90;;;;;;479618;248;27604;-71
2023/10/23 05:59:18;;;;;;;5.10;2.65;;;4.60;99.90;;;;;;479647;248;27558;-72
2023/10/23 06:01:19;;;;;;;3.90;2.37;;;4.70;99.90;;;;;;479615;248;27940;-70
2023/10/23 06:03:20;;;;;;;5.62;2.25;;;4.70;99.90;;;;;;479620;248;28083;-71
2023/10/23 06:05:21;;;;;;;4.65;2.53;;;4.70;99.90;;;;;;479640;247;27580;-72
2023/10/23 06:07:23;;;;;;;2.50;2.30;;;4.60;99.90;;;;;;479640;248;27491;-70
2023/10/23 06:09:24;;;;;;;2.08;1.98;;;4.60;99.90;;;;;;479644;248;27541;-71
2023/10/23 06:11:25;;;;;;;4.12;1.80;;;4.60;99.90;;;;;;479603;248;27484;-70
2023/10/23 06:13:27;;;;;;;3.78;2.55;;;4.60;99.90;;;;;;479632;248;27627;-71
2023/10/23 06:15:28;;;;;;;4.50;2.97;;;4.60;99.90;;;;;;479625;248;27547;-72
2023/10/23 06:17:29;;;;;;;5.85;3.10;;;4.70;99.90;;;;;;479625;248;27484;-70
2023/10/23 06:19:33;;;;;;;3.85;2.60;;;4.70;99.90;;;;;;479592;248;28094;-70
2023/10/23 06:21:34;;;;;;;4.78;3.15;;;4.70;99.90;;;;;;479502;247;27605;-71
2023/10/23 06:23:36;;;;;;;6.78;3.15;;;4.80;99.90;;;;;;479589;248;27492;-70
2023/10/23 06:25:37;;;;;;;4.62;2.50;;;4.80;99.90;;;;;;479594;248;27493;-70
2023/10/23 06:27:38;;;;;;;5.35;2.65;;;4.80;99.90;;;;;;479611;243;27559;-71
2023/10/23 06:29:39;;;;;;;3.50;2.78;;;4.90;99.90;;;;;;479602;248;27492;-70
2023/10/23 06:31:40;;;;;;;2.65;2.17;;;4.90;99.90;;;;;;479597;248;27528;-70
2023/10/23 06:33:46;;;;;;;4.25;2.50;;;5.00;99.90;;;;;;479619;248;27601;-71
2023/10/23 06:35:46;;;;;;;7.78;2.83;;;5.10;99.90;;;;;;479593;248;28108;-70
2023/10/23 06:37:48;;;;;;;8.45;2.65;;;5.80;99.90;;;;;;479636;248;27688;-71
2023/10/23 06:39:49;;;;;;;20.70;3.15;;;5.80;99.90;;;;;;479651;248;27627;-70
2023/10/23 06:41:52;;;;;;;12.43;3.12;;;6.30;99.90;;;;;;479606;248;27531;-71
2023/10/23 06:43:53;;;;;;;6.80;2.55;;;6.80;99.90;;;;;;479635;248;27579;-71
2023/10/23 06:45:54;;;;;;;6.60;2.30;;;7.00;99.90;;;;;;479617;248;28074;-71
2023/10/23 06:47:55;;;;;;;5.60;2.30;;;7.10;99.90;;;;;;479617;248;27940;-70
2023/10/23 06:49:57;;;;;;;7.75;2.80;;;7.00;99.90;;;;;;479618;248;27624;-71
2023/10/23 06:51:59;;;;;;;11.07;2.55;;;7.00;99.90;;;;;;479585;248;27527;-71
2023/10/23 06:53:59;;;;;;;5.80;2.43;;;7.10;99.90;;;;;;479594;248;27483;-70
2023/10/23 06:56:01;;;;;;;8.93;2.70;;;7.10;99.90;;;;;;479552;248;28692;-70
2023/10/23 06:58:02;;;;;;;3.53;2.25;;;6.70;99.90;;;;;;479558;248;27941;-70
2023/10/23 07:00:03;;;;;;;5.87;2.15;;;6.10;99.90;;;;;;479540;248;27556;-70
2023/10/23 07:02:04;;;;;;;4.25;2.33;;;5.60;99.90;;;;;;479584;248;28051;-71
2023/10/23 07:04:06;;;;;;;5.50;2.20;;;5.50;99.90;;;;;;479568;248;27936;-70
2023/10/23 07:06:07;;;;;;;3.63;2.20;;;5.40;99.90;;;;;;479598;248;27620;-70
2023/10/23 07:08:08;;;;;;;4.50;2.13;;;5.50;99.90;;;;;;479562;248;28833;-70
2023/10/23 07:10:09;;;;;;;3.67;2.25;;;6.40;99.90;;;;;;479599;248;28881;-70
2023/10/23 07:12:11;;;;;;;5.83;2.10;;;6.60;99.90;;;;;;479616;248;27530;-71
2023/10/23 07:14:12;;;;;;;8.80;3.23;;;7.00;99.90;;;;;;479568;248;28913;-70
2023/10/23 07:16:13;;;;;;;7.40;3.07;;;7.20;99.90;;;;;;479610;248;27761;-71
2023/10/23 07:18:14;;;;;;;5.33;2.20;;;7.40;99.90;;;;;;479592;248;28685;-70
2023/10/23 07:20:17;;;;;;;8.97;2.57;;;7.60;99.90;;;;;;479588;248;28789;-70
2023/10/23 07:22:17;;;;;;;6.77;3.03;;;7.80;99.90;;;;;;479585;248;28235;-71
2023/10/23 07:24:18;;;;;;;6.90;2.40;;;7.80;99.90;;;;;;479637;248;28310;-70
2023/10/23 07:26:19;;;;;;;11.20;2.40;;;8.10;99.90;;;;;;479645;248;28486;-71
2023/10/23 07:28:21;;;;;;;7.63;2.90;;;8.00;99.90;;;;;;479574;248;28452;-72
2023/10/23 07:30:24;;;;;;;5.33;2.10;;;8.10;99.90;;;;;;479601;248;27922;-70
2023/10/23 07:32:23;;;;;;;5.50;2.40;;;8.20;99.90;;;;;;479605;248;28505;-70
2023/10/23 07:34:24;;;;;;;8.17;2.63;;;8.30;99.90;;;;;;479660;248;28151;-70
2023/10/23 07:36:26;;;;;;;5.63;2.03;;;8.20;99.90;;;;;;479555;242;27753;-70
2023/10/23 07:38:27;;;;;;;4.67;2.37;;;8.10;99.90;;;;;;479574;242;27969;-72
2023/10/23 07:40:28;;;;;;;4.50;2.07;;;8.10;99.90;;;;;;479647;248;27970;-70
2023/10/23 07:42:29;;;;;;;8.60;2.53;;;8.40;99.90;;;;;;479595;248;28141;-70
2023/10/23 07:44:31;;;;;;;5.30;2.40;;;8.50;99.90;;;;;;479541;248;27776;-70
2023/10/23 07:46:32;;;;;;;12.80;2.70;;;8.60;99.90;;;;;;479572;248;28020;-70
2023/10/23 07:48:33;;;;;;;8.80;2.40;;;8.80;99.90;;;;;;479603;248;28139;-72
2023/10/23 07:50:35;;;;;;;12.07;2.80;;;8.80;99.90;;;;;;479575;248;27935;-70
2023/10/23 07:52:36;;;;;;;6.13;1.97;;;8.90;99.90;;;;;;479578;248;28124;-71
2023/10/23 07:54:37;;;;;;;6.50;2.40;;;8.90;99.90;;;;;;479587;248;28659;-71
2023/10/23 07:56:38;;;;;;;8.27;3.03;;;8.90;99.90;;;;;;479575;247;28301;-71
2023/10/23 07:58:39;;;;;;;4.80;2.27;;;8.90;99.90;;;;;;479586;248;28356;-70
2023/10/23 08:00:41;;;;;;;5.40;2.20;;;9.00;99.90;;;;;;479585;248;28267;-70
2023/10/23 08:02:42;;;;;;;4.63;2.00;;;9.00;99.90;;;;;;479586;247;28596;-71
2023/10/23 08:04:43;;;;;;;6.13;2.40;;;9.10;99.90;;;;;;479572;248;28585;-71
2023/10/23 08:06:44;;;;;;;5.40;2.17;;;9.20;99.90;;;;;;479596;248;28072;-71
2023/10/23 08:08:46;;;;;;;4.90;2.40;;;9.30;99.90;;;;;;479607;248;28010;-72
2023/10/23 08:10:47;;;;;;;13.90;2.70;;;9.40;99.90;;;;;;479604;248;27966;-71
2023/10/23 08:12:48;;;;;;;6.23;2.80;;;9.50;99.90;;;;;;479602;248;27847;-71
2023/10/23 08:14:50;;;;;;;9.00;2.90;;;9.50;99.90;;;;;;479634;248;28032;-72
2023/10/23 08:16:52;;;;;;;4.73;2.10;;;9.50;99.90;;;;;;479621;247;27965;-70
2023/10/23 08:18:52;;;;;;;12.60;2.67;;;9.60;99.90;;;;;;479591;248;27985;-71
2023/10/23 08:20:53;;;;;;;6.40;2.03;;;9.70;99.90;;;;;;479604;248;28186;-71
2023/10/23 08:22:54;;;;;;;5.90;2.53;;;9.70;99.90;;;;;;479644;248;27984;-70
2023/10/23 08:24:56;;;;;;;3.23;1.97;;;9.70;99.90;;;;;;479635;248;28014;-72
2023/10/23 08:26:57;;;;;;;8.87;3.13;;;9.90;99.90;;;;;;479631;248;28031;-71
2023/10/23 08:28:58;;;;;;;12.50;2.03;;;9.90;99.90;;;;;;479636;248;28040;-71
2023/10/23 08:30:59;;;;;;;3.20;1.90;;;9.90;99.90;;;;;;479627;248;28626;-70
2023/10/23 08:33:01;;;;;;;9.60;2.60;;;10.00;99.90;;;;;;479628;248;28705;-71
2023/10/23 08:35:02;;;;;;;8.60;2.40;;;10.00;99.90;;;;;;479640;248;28362;-71
2023/10/23 08:37:03;;;;;;;8.63;1.80;;;10.00;99.90;;;;;;479576;243;28089;-71
2023/10/23 08:39:04;;;;;;;4.97;2.40;;;10.10;99.90;;;;;;479593;248;27835;-71
2023/10/23 08:41:06;;;;;;;5.67;2.47;;;10.10;99.90;;;;;;479591;248;27908;-71
2023/10/23 08:43:07;;;;;;;5.37;2.17;;;10.20;99.90;;;;;;479599;248;27863;-71
2023/10/23 08:45:08;;;;;;;10.20;2.57;;;10.20;99.90;;;;;;479624;248;28354;-71
2023/10/23 08:47:09;;;;;;;6.17;2.00;;;10.20;99.90;;;;;;479630;248;27980;-71
2023/10/23 08:49:11;;;;;;;10.40;2.20;;;10.20;99.90;;;;;;479617;248;27964;-70
2023/10/23 08:51:12;;;;;;;5.50;2.73;;;10.20;99.90;;;;;;479602;248;28101;-72
2023/10/23 08:53:13;;;;;;;7.57;2.20;;;10.20;99.90;;;;;;479594;248;27920;-71
2023/10/23 08:55:14;;;;;;;9.00;2.23;;;10.20;99.90;;;;;;479585;248;28350;-71
2023/10/23 08:57:16;;;;;;;7.97;2.30;;;10.30;99.90;;;;;;479598;248;28573;-71
2023/10/23 08:59:17;;;;;;;10.60;2.60;;;10.30;99.90;;;;;;479638;248;28459;-71
2023/10/23 09:01:18;;;;;;;5.10;2.10;;;10.30;99.90;;;;;;479615;248;28138;-71
2023/10/23 09:03:19;;;;;;;10.40;2.77;;;10.40;99.90;;;;;;479620;248;28076;-70
2023/10/23 09:05:21;;;;;;;3.90;1.87;;;10.40;99.90;;;;;;479635;248;28136;-70
2023/10/23 09:07:22;;;;;;;4.17;2.00;;;10.40;99.90;;;;;;479637;248;28668;-71
2023/10/23 09:09:23;;;;;;;11.07;2.50;;;10.50;99.90;;;;;;479650;248;28176;-71
2023/10/23 09:11:27;;;;;;;8.00;2.17;;;10.50;99.90;;;;;;479601;248;28104;-71
2023/10/23 09:13:26;;;;;;;6.13;2.07;;;10.50;99.90;;;;;;479548;248;28143;-73
2023/10/23 09:15:27;;;;;;;5.80;2.23;;;10.50;99.90;;;;;;479616;248;28038;-71
2023/10/23 09:17:30;;;;;;;4.03;1.80;;;10.50;99.90;;;;;;479491;248;27881;-71
2023/10/23 09:19:38;;;;;;;4.83;1.83;;;10.60;99.90;;;;;;479571;248;28123;-71
2023/10/23 09:21:38;;;;;;;3.67;2.30;;;10.60;99.90;;;;;;479611;248;28242;-71
2023/10/23 09:23:40;;;;;;;11.77;4.40;;;10.70;99.90;;;;;;479605;248;28210;-70
2023/10/23 09:25:41;;;;;;;7.90;3.40;;;10.70;99.90;;;;;;479580;248;28116;-71
2023/10/23 09:27:42;;;;;;;11.60;5.57;;;10.80;99.90;;;;;;479614;248;27927;-73
2023/10/23 09:29:44;;;;;;;12.97;7.40;;;10.80;99.90;;;;;;479598;248;28090;-71
2023/10/23 09:31:45;;;;;;;7.07;3.80;;;10.80;99.90;;;;;;479600;248;28085;-71
2023/10/23 09:33:46;;;;;;;4.13;2.50;;;10.90;99.90;;;;;;479574;248;28085;-70
2023/10/23 09:35:47;;;;;;;5.23;2.23;;;10.90;99.90;;;;;;479594;248;28656;-73
2023/10/23 09:37:48;;;;;;;4.10;2.10;;;10.90;99.90;;;;;;479590;248;28575;-71
2023/10/23 09:39:50;;;;;;;4.17;2.50;;;11.00;99.90;;;;;;479606;248;28778;-71
2023/10/23 09:41:52;;;;;;;5.03;2.63;;;11.00;99.90;;;;;;479608;248;28664;-71
2023/10/23 09:43:53;;;;;;;2.70;1.83;;;11.00;99.90;;;;;;479588;248;28220;-71
2023/10/23 09:45:53;;;;;;;4.43;2.00;;;11.00;99.90;;;;;;479605;248;28164;-71
2023/10/23 09:47:56;;;;;;;7.57;2.20;;;11.00;99.90;;;;;;479597;248;28208;-71
2023/10/23 09:50:03;;;;;;;17.20;3.30;;;11.00;99.90;;;;;;479586;248;28203;-71
2023/10/23 09:51:59;;;;;;;5.23;1.80;;;11.00;99.90;;;;;;479354;248;28742;-72
2023/10/23 09:54:00;;;;;;;4.33;2.20;;;11.00;99.90;;;;;;479600;248;28608;-71
2023/10/23 09:56:01;;;;;;;4.23;1.87;;;11.00;99.90;;;;;;479595;248;28723;-71
2023/10/23 09:58:02;;;;;;;7.60;2.80;;;10.90;99.90;;;;;;479591;248;29378;-71
2023/10/23 10:00:23;;;;;;;4.83;2.20;;;11.00;99.90;;;;;;479618;248;28209;-71
2023/10/23 10:02:08;;;;;;;2.00;1.77;;;11.00;99.90;;;;;;478415;248;28284;-70
2023/10/23 10:04:09;;;;;;;2.37;2.00;;;11.00;99.90;;;;;;479613;242;28068;-71
2023/10/23 10:06:10;;;;;;;3.23;1.77;;;11.00;99.90;;;;;;479623;248;29627;-71
2023/10/23 10:08:12;;;;;;;5.13;1.83;;;11.00;99.90;;;;;;479625;248;28769;-71
2023/10/23 10:10:14;;;;;;;2.87;1.90;;;11.00;99.90;;;;;;479642;248;28800;-71
2023/10/23 10:12:14;;;;;;;5.23;2.03;;;11.00;99.90;;;;;;479588;248;28643;-71
2023/10/23 10:14:15;;;;;;;3.37;1.90;;;11.00;99.90;;;;;;479652;248;28131;-72
2023/10/23 10:16:17;;;;;;;3.43;2.13;;;11.00;99.90;;;;;;479620;248;28293;-71
2023/10/23 10:18:18;;;;;;;4.47;2.30;;;11.10;99.90;;;;;;479588;248;28282;-71
2023/10/23 10:20:22;;;;;;;4.87;2.17;;;11.10;99.90;;;;;;479610;248;28339;-72
2023/10/23 10:22:24;;;;;;;4.33;2.37;;;11.20;99.90;;;;;;479607;248;28240;-72
2023/10/23 10:24:25;;;;;;;9.40;2.47;;;11.10;99.90;;;;;;479532;248;28327;-72
2023/10/23 10:26:26;;;;;;;2.40;1.97;;;11.20;99.90;;;;;;479603;248;28335;-71
2023/10/23 10:28:27;;;;;;;3.30;1.80;;;11.20;99.90;;;;;;479603;248;28326;-72
2023/10/23 10:30:28;;;;;;;2.40;1.63;;;11.20;99.90;;;;;;479585;248;28315;-72
2023/10/23 10:32:30;;;;;;;5.30;1.93;;;11.30;99.90;;;;;;479591;248;28369;-72
2023/10/23 10:34:31;;;;;;;2.97;1.80;;;11.30;99.90;;;;;;479658;248;28310;-72
2023/10/23 10:36:32;;;;;;;3.17;2.10;;;11.30;99.90;;;;;;479591;248;28225;-72
2023/10/23 10:38:33;;;;;;;3.63;1.80;;;11.40;99.90;;;;;;479556;248;28719;-72